Airfield :
LOGIN :

Register | Disclaimer

   EN    FR    IT 

 










Legend :    VFR   Marginal VFR   IFR   Intensive IFR   Very Intensive IFR
Visi :
Ceiling :
>= 8 km
>= 3000ft
5 to 8 km
1000 to 3000 ft
1500m to 5 km
500 to 1000 ft
800 to 1500m
200 to 500 ft
< 800m
< 200 ft
Symbols :   Thunderstorms  Fog  Heavy snow  Heavy precipitations  Wind > 20 kt
SIGMETs :     Misc.  Thunderstorms  Icing  Turbulence  Mountain Waves  Volcanic Ashes







- Airport Elevation : 598 ft
- IATA code : BQH
- Download approach charts


EGKB - Biggin Hill

CURRENT METAR :
  • 241150Z 14008KT 100V180 CAVOK 25/12 Q1020

EXPIRED METARs :
  • 241120Z 12007KT 080V160 CAVOK 26/13 Q1020
  • 241050Z 12007KT 080V170 CAVOK 25/13 Q1020
  • 241020Z 13006KT 020V170 CAVOK 24/14 Q1020
  • 240950Z 13006KT 100V160 CAVOK 24/15 Q1021
  • 240920Z 13005KT 110V170 CAVOK 23/15 Q1021

TAF TAF EGKB
Valid from the 24 at 12:00 until the 24 at 21:00 UTC


241058Z 2412/2421 13006KT CAVOK
No reported NOTAMs for that airfield.



MET'MAP, your aeronautical weather chart ! - Copyright ORBIFLY December 2007 - Disclaimer

ORBIFLY MET'MAP TEAM :

Programming & Development : Alexandra Zaïnal
Concept & Development : Baudouin d'Aumeries
Co-Development & Prog : Marc-Olivier Méhu
Technical & hardware support : Manuel Goepfert

Contact : metmap@orbifly.com




SOURCES & CREDITS :

   NOAA